createdAt,value
2018-03-06T00:02:12.845Z,3.60
2018-03-06T00:04:41.328Z,2.90
2018-03-06T00:07:09.817Z,3.37
2018-03-06T00:09:38.305Z,3.20
2018-03-06T00:12:06.778Z,2.77
2018-03-06T00:14:35.271Z,3.00
2018-03-06T00:17:03.744Z,2.83
2018-03-06T00:19:32.249Z,2.83
2018-03-06T00:22:00.737Z,3.10
2018-03-06T00:24:29.222Z,3.10
2018-03-06T00:26:57.720Z,3.20
2018-03-06T00:29:26.202Z,3.10
2018-03-06T00:31:54.678Z,3.10
2018-03-06T00:34:23.163Z,2.87
2018-03-06T00:36:51.657Z,2.90
2018-03-06T00:39:20.144Z,3.27
2018-03-06T00:41:48.621Z,3.17
2018-03-06T00:44:16.933Z,2.97
2018-03-06T00:46:45.445Z,2.73
2018-03-06T00:49:13.737Z,3.10
2018-03-06T00:51:42.221Z,2.83
2018-03-06T00:54:10.702Z,2.67
2018-03-06T00:56:39.188Z,2.80
2018-03-06T00:59:07.517Z,2.97
2018-03-06T01:01:35.837Z,3.73
2018-03-06T01:04:04.313Z,2.67
2018-03-06T01:06:32.810Z,2.87
2018-03-06T01:09:01.300Z,3.00
2018-03-06T01:11:29.613Z,2.57
2018-03-06T01:13:57.929Z,2.90
2018-03-06T01:16:26.409Z,2.33
2018-03-06T01:18:54.886Z,2.87
2018-03-06T01:21:23.362Z,2.43
2018-03-06T01:23:51.838Z,3.00
2018-03-06T01:26:20.329Z,2.50
2018-03-06T01:28:48.801Z,2.87
2018-03-06T01:31:17.266Z,2.60
2018-03-06T01:33:45.788Z,2.80
2018-03-06T01:36:14.296Z,2.40
2018-03-06T01:38:42.756Z,2.63
2018-03-06T01:41:11.246Z,2.63
2018-03-06T01:43:39.758Z,2.73
2018-03-06T01:46:08.222Z,2.73
2018-03-06T01:48:36.700Z,2.40
2018-03-06T01:51:05.171Z,2.53
2018-03-06T01:53:33.642Z,2.47
2018-03-06T01:56:03.817Z,2.50
2018-03-06T01:58:32.293Z,2.33
2018-03-06T02:01:00.767Z,2.37
2018-03-06T02:03:29.060Z,2.77
2018-03-06T02:05:57.354Z,2.50
2018-03-06T02:08:25.851Z,2.53
2018-03-06T02:10:54.336Z,2.40
2018-03-06T02:13:22.801Z,2.47
2018-03-06T02:15:51.282Z,2.50
2018-03-06T02:18:19.765Z,2.40
2018-03-06T02:20:48.260Z,2.57
2018-03-06T02:23:16.567Z,3.30
2018-03-06T02:25:45.049Z,3.87
2018-03-06T02:28:13.356Z,3.80
2018-03-06T02:30:41.852Z,4.30
2018-03-06T02:33:10.360Z,4.53
2018-03-06T02:35:38.833Z,4.73
2018-03-06T02:38:07.341Z,5.10
2018-03-06T02:40:35.633Z,5.67
2018-03-06T02:43:04.120Z,5.43
2018-03-06T02:45:32.602Z,6.00
2018-03-06T02:48:01.069Z,6.20
2018-03-06T02:50:29.571Z,5.83
2018-03-06T02:52:58.050Z,6.57
2018-03-06T02:55:26.522Z,6.40
2018-03-06T02:57:55.009Z,7.33
2018-03-06T03:00:23.510Z,7.50
2018-03-06T03:02:51.821Z,7.03
2018-03-06T03:05:20.340Z,7.50
2018-03-06T03:07:48.818Z,7.20
2018-03-06T03:10:17.289Z,4.90
2018-03-06T03:12:45.815Z,4.43
2018-03-06T03:15:14.328Z,4.87
2018-03-06T03:17:42.806Z,4.80
2018-03-06T03:20:11.310Z,5.00
2018-03-06T03:22:39.796Z,4.47
2018-03-06T03:25:08.271Z,4.33
2018-03-06T03:27:36.599Z,4.37
2018-03-06T03:30:05.107Z,4.60
2018-03-06T03:32:33.581Z,4.37
2018-03-06T03:35:02.073Z,4.47
2018-03-06T03:37:30.573Z,4.70
2018-03-06T03:39:59.065Z,4.23
2018-03-06T03:42:27.557Z,4.30
2018-03-06T03:44:56.177Z,4.57
2018-03-06T03:47:24.668Z,4.80
2018-03-06T03:49:52.979Z,4.80
2018-03-06T03:52:21.462Z,5.00
2018-03-06T03:54:49.949Z,6.00
2018-03-06T03:57:18.286Z,5.97
2018-03-06T03:59:46.771Z,6.10
2018-03-06T04:02:15.259Z,6.97
2018-03-06T04:04:43.813Z,6.37
2018-03-06T04:07:12.130Z,4.83
2018-03-06T04:09:40.601Z,5.40
2018-03-06T04:12:08.926Z,5.20
2018-03-06T04:14:37.212Z,6.17
2018-03-06T04:17:05.699Z,5.97
2018-03-06T04:19:34.227Z,6.23
2018-03-06T04:22:02.718Z,5.60
2018-03-06T04:24:31.206Z,5.43
2018-03-06T04:26:59.711Z,5.83
2018-03-06T04:29:28.176Z,5.70
2018-03-06T04:31:56.654Z,5.50
2018-03-06T04:34:25.177Z,5.20
2018-03-06T04:36:53.648Z,5.40
2018-03-06T04:39:23.429Z,5.00
2018-03-06T04:41:51.937Z,4.40
2018-03-06T04:44:20.429Z,4.40
2018-03-06T04:46:48.859Z,4.70
2018-03-06T04:49:17.374Z,4.30
2018-03-06T04:51:45.941Z,4.63
2018-03-06T04:54:14.242Z,4.20
2018-03-06T04:56:42.746Z,4.07
2018-03-06T04:59:11.219Z,4.37
2018-03-06T05:01:39.694Z,4.50
2018-03-06T05:04:08.183Z,4.40
2018-03-06T05:06:36.662Z,4.40
2018-03-06T05:09:04.692Z,4.27
2018-03-06T05:11:33.012Z,3.87
2018-03-06T05:14:01.502Z,4.10
2018-03-06T05:16:29.997Z,4.20
2018-03-06T05:18:58.493Z,4.00
2018-03-06T05:21:45.118Z,4.10
2018-03-06T05:24:13.631Z,4.43
2018-03-06T05:26:41.923Z,4.20
2018-03-06T05:29:10.408Z,3.80
2018-03-06T05:31:38.913Z,4.17
2018-03-06T05:34:07.402Z,4.13
2018-03-06T05:36:35.878Z,3.57
2018-03-06T05:39:03.708Z,3.90
2018-03-06T05:41:32.048Z,3.77
2018-03-06T05:44:00.522Z,3.90
2018-03-06T05:46:28.845Z,3.57
2018-03-06T05:48:57.349Z,3.70
2018-03-06T05:51:25.834Z,3.73
2018-03-06T05:53:54.331Z,3.23
2018-03-06T05:56:22.610Z,3.53
2018-03-06T05:58:50.900Z,3.50
2018-03-06T06:01:19.402Z,3.50
2018-03-06T06:03:47.892Z,3.63
2018-03-06T06:06:16.396Z,3.47
2018-03-06T06:08:44.746Z,3.50
2018-03-06T06:11:13.229Z,3.53
2018-03-06T06:13:41.699Z,3.70
2018-03-06T06:16:10.011Z,3.30
2018-03-06T06:18:38.289Z,3.50
2018-03-06T06:21:06.592Z,3.50
2018-03-06T06:23:34.904Z,3.67
2018-03-06T06:26:03.395Z,3.60
2018-03-06T06:28:31.693Z,3.90
2018-03-06T06:31:00.031Z,3.60
2018-03-06T06:33:28.337Z,4.03
2018-03-06T06:35:56.648Z,4.13
2018-03-06T06:38:24.958Z,4.80
2018-03-06T06:40:53.259Z,4.60
2018-03-06T06:43:21.532Z,3.93
2018-03-06T06:45:50.047Z,3.80
2018-03-06T06:48:18.350Z,3.80
2018-03-06T06:50:46.642Z,4.10
2018-03-06T06:53:14.968Z,3.60
2018-03-06T06:55:43.249Z,4.20
2018-03-06T06:58:11.536Z,3.80
2018-03-06T07:00:39.856Z,3.50
2018-03-06T07:03:08.156Z,6.77
2018-03-06T07:05:36.445Z,7.40
2018-03-06T07:08:05.596Z,7.37
2018-03-06T07:10:33.881Z,7.87
2018-03-06T07:13:02.176Z,7.77
2018-03-06T07:15:30.473Z,9.00
2018-03-06T07:17:58.750Z,8.17
2018-03-06T07:20:26.785Z,8.80
2018-03-06T07:22:55.110Z,8.83
2018-03-06T07:25:23.400Z,8.97
2018-03-06T07:27:51.674Z,9.17
2018-03-06T07:30:19.990Z,8.67
2018-03-06T07:32:48.303Z,8.67
2018-03-06T07:35:16.594Z,8.47
2018-03-06T07:37:44.926Z,8.50
2018-03-06T07:40:13.243Z,9.03
2018-03-06T07:42:41.527Z,9.43
2018-03-06T07:45:10.536Z,9.73
2018-03-06T07:47:38.839Z,9.90
2018-03-06T07:50:07.141Z,9.90
2018-03-06T07:52:35.486Z,11.33
2018-03-06T07:55:03.788Z,10.97
2018-03-06T07:57:32.085Z,11.70
2018-03-06T08:00:00.429Z,10.57
2018-03-06T08:02:28.784Z,11.13
2018-03-06T08:04:57.209Z,11.93
2018-03-06T08:07:25.524Z,11.50
2018-03-06T08:09:53.841Z,11.33
2018-03-06T08:12:22.139Z,10.63
2018-03-06T08:14:50.453Z,10.33
2018-03-06T08:17:18.855Z,10.17
2018-03-06T08:19:47.139Z,10.80
2018-03-06T08:22:15.479Z,11.50
2018-03-06T08:24:43.764Z,10.17
2018-03-06T08:27:12.046Z,9.40
2018-03-06T08:29:40.449Z,9.17
2018-03-06T08:32:08.782Z,9.60
2018-03-06T08:34:37.070Z,9.30
2018-03-06T08:37:05.398Z,8.27
2018-03-06T08:39:33.679Z,9.17
2018-03-06T08:42:01.981Z,8.73
2018-03-06T08:44:30.295Z,9.10
2018-03-06T08:46:58.598Z,9.27
2018-03-06T08:49:26.903Z,9.10
2018-03-06T08:51:55.226Z,9.30
2018-03-06T08:54:23.520Z,9.33
2018-03-06T08:56:51.821Z,8.83
2018-03-06T08:59:20.128Z,8.63
2018-03-06T09:01:48.402Z,8.83
2018-03-06T09:04:16.681Z,9.13
2018-03-06T09:06:44.802Z,8.40
2018-03-06T09:09:13.081Z,9.30
2018-03-06T09:11:41.357Z,8.73
2018-03-06T09:14:09.676Z,8.10
2018-03-06T09:16:37.970Z,8.43
2018-03-06T09:19:06.260Z,7.73
2018-03-06T09:21:34.563Z,7.87
2018-03-06T09:24:02.847Z,7.63
2018-03-06T09:26:31.137Z,7.70
2018-03-06T09:28:59.439Z,7.93
2018-03-06T09:31:27.727Z,7.30
2018-03-06T09:33:56.021Z,8.60
2018-03-06T09:36:24.350Z,9.63
2018-03-06T09:38:52.656Z,10.23
2018-03-06T09:41:20.762Z,9.77
2018-03-06T09:43:49.083Z,9.73
2018-03-06T09:46:17.384Z,9.07
2018-03-06T09:48:45.680Z,8.50
2018-03-06T09:51:14.004Z,8.97
2018-03-06T09:53:42.917Z,8.27
2018-03-06T09:56:11.238Z,8.73
2018-03-06T09:58:39.574Z,9.33
2018-03-06T10:01:07.863Z,8.60
2018-03-06T10:03:36.150Z,8.77
2018-03-06T10:06:04.466Z,8.77
2018-03-06T10:08:32.747Z,8.77
2018-03-06T10:11:01.036Z,8.73
2018-03-06T10:13:29.368Z,8.67
2018-03-06T10:15:57.657Z,8.63
2018-03-06T10:18:25.955Z,8.57
2018-03-06T10:20:54.277Z,8.17
2018-03-06T10:23:22.589Z,7.97
2018-03-06T10:25:50.889Z,7.73
2018-03-06T10:28:19.198Z,7.10
2018-03-06T10:30:47.302Z,7.93
2018-03-06T10:33:15.588Z,7.30
2018-03-06T10:35:43.906Z,8.13
2018-03-06T10:38:12.205Z,8.27
2018-03-06T10:40:40.528Z,7.57
2018-03-06T10:43:08.835Z,8.30
2018-03-06T10:45:37.133Z,8.27
2018-03-06T10:48:05.426Z,7.67
2018-03-06T10:50:33.757Z,7.73
2018-03-06T10:53:02.097Z,7.47
2018-03-06T10:55:30.449Z,7.40
2018-03-06T10:57:58.750Z,7.73
2018-03-06T11:00:32.458Z,7.37
2018-03-06T11:03:00.583Z,7.60
2018-03-06T11:05:28.877Z,7.33
2018-03-06T11:07:57.153Z,6.73
2018-03-06T11:10:25.477Z,6.77
2018-03-06T11:12:53.745Z,7.37
2018-03-06T11:15:22.031Z,7.40
2018-03-06T11:17:50.352Z,7.47
2018-03-06T11:20:18.652Z,6.73
2018-03-06T11:22:46.939Z,6.97
2018-03-06T11:25:15.645Z,6.83
2018-03-06T11:27:44.141Z,6.90
2018-03-06T11:30:12.512Z,7.60
2018-03-06T11:32:40.665Z,6.83
2018-03-06T11:35:08.718Z,6.50
2018-03-06T11:37:36.999Z,6.47
2018-03-06T11:40:05.314Z,6.60
2018-03-06T11:42:33.636Z,6.47
2018-03-06T11:45:01.933Z,6.60
2018-03-06T11:47:30.261Z,6.47
2018-03-06T11:49:58.550Z,6.40
2018-03-06T11:52:26.831Z,6.77
2018-03-06T11:54:55.129Z,6.33
2018-03-06T11:57:23.417Z,6.67
2018-03-06T11:59:51.737Z,6.10
2018-03-06T12:02:20.073Z,6.53
2018-03-06T12:04:48.373Z,6.00
2018-03-06T12:07:16.923Z,6.47
2018-03-06T12:09:45.535Z,6.10
2018-03-06T12:12:13.832Z,6.47
2018-03-06T12:14:42.102Z,6.07
2018-03-06T12:17:10.423Z,5.90
2018-03-06T12:19:38.707Z,5.87
2018-03-06T12:22:07.002Z,6.57
2018-03-06T12:24:35.324Z,6.13
2018-03-06T12:27:03.735Z,5.97
2018-03-06T12:29:32.033Z,6.13
2018-03-06T12:32:00.366Z,5.73
2018-03-06T12:34:28.649Z,6.33
2018-03-06T12:36:56.952Z,6.03
2018-03-06T12:39:25.508Z,6.10
2018-03-06T12:41:54.165Z,5.53
2018-03-06T12:44:22.461Z,6.20
2018-03-06T12:46:50.812Z,5.60
2018-03-06T12:49:19.134Z,5.90
2018-03-06T12:51:47.598Z,5.47
2018-03-06T12:54:15.919Z,5.37
2018-03-06T12:56:44.205Z,5.43
2018-03-06T12:59:12.506Z,5.70
2018-03-06T13:01:40.793Z,5.60
2018-03-06T13:04:09.081Z,5.20
2018-03-06T13:06:37.365Z,5.67
2018-03-06T13:09:05.269Z,6.20
2018-03-06T13:11:33.573Z,5.40
2018-03-06T13:14:01.879Z,5.67
2018-03-06T13:16:30.194Z,5.90
2018-03-06T13:18:58.501Z,5.20
2018-03-06T13:21:26.598Z,5.93
2018-03-06T13:23:54.921Z,5.80
2018-03-06T13:26:23.410Z,5.17
2018-03-06T13:28:51.705Z,5.77
2018-03-06T13:31:20.028Z,5.97
2018-03-06T13:33:48.328Z,7.13
2018-03-06T13:36:16.644Z,11.33
2018-03-06T13:38:44.982Z,14.03
2018-03-06T13:41:13.470Z,15.43
2018-03-06T13:43:41.573Z,17.20
2018-03-06T13:46:09.896Z,15.73
2018-03-06T13:48:38.205Z,19.03
2018-03-06T13:51:06.518Z,18.20
2018-03-06T13:53:34.860Z,18.17
2018-03-06T13:56:03.281Z,17.87
2018-03-06T13:58:31.574Z,18.20
2018-03-06T14:00:59.921Z,18.67
2018-03-06T14:03:28.214Z,18.63
2018-03-06T14:05:56.575Z,17.77
2018-03-06T14:08:24.882Z,18.23
2018-03-06T14:10:53.197Z,17.47
2018-03-06T14:13:21.493Z,18.73
2018-03-06T14:15:49.866Z,17.70
2018-03-06T14:18:18.169Z,18.23
2018-03-06T14:20:46.478Z,17.90
2018-03-06T14:23:14.818Z,18.50
2018-03-06T14:25:43.130Z,17.43
2018-03-06T14:28:11.434Z,16.83
2018-03-06T14:30:39.765Z,17.07
2018-03-06T14:33:08.050Z,16.57
2018-03-06T14:35:36.362Z,16.57
2018-03-06T14:38:04.725Z,16.13
2018-03-06T14:40:33.029Z,16.23
2018-03-06T14:43:01.315Z,15.40
2018-03-06T14:45:29.643Z,16.50
2018-03-06T14:47:57.955Z,15.70
2018-03-06T14:50:26.277Z,15.53
2018-03-06T14:52:54.607Z,14.77
2018-03-06T14:55:22.913Z,15.10
2018-03-06T14:57:51.198Z,15.30
2018-03-06T15:00:19.521Z,13.87
2018-03-06T15:02:47.803Z,14.93
2018-03-06T15:05:16.094Z,14.50
2018-03-06T15:07:44.414Z,14.30
2018-03-06T15:10:12.712Z,14.07
2018-03-06T15:12:41.058Z,14.23
2018-03-06T15:15:09.367Z,13.70
2018-03-06T15:17:37.654Z,13.60
2018-03-06T15:20:05.956Z,13.10
2018-03-06T15:22:34.261Z,13.17
2018-03-06T15:25:02.543Z,13.27
2018-03-06T15:27:30.831Z,13.53
2018-03-06T15:29:59.126Z,12.87
2018-03-06T15:32:27.430Z,12.93
2018-03-06T15:34:55.721Z,13.50
2018-03-06T15:37:24.049Z,12.10
2018-03-06T15:39:52.418Z,12.57
2018-03-06T15:42:20.706Z,12.07
2018-03-06T15:44:48.998Z,12.63
2018-03-06T15:47:17.323Z,11.73
2018-03-06T15:49:45.624Z,11.03
2018-03-06T15:52:13.913Z,11.73
2018-03-06T15:54:42.213Z,11.17
2018-03-06T15:57:10.540Z,10.87
2018-03-06T15:59:38.837Z,10.77
2018-03-06T16:02:07.137Z,11.00
2018-03-06T16:04:35.425Z,10.70
2018-03-06T16:07:03.713Z,10.57
2018-03-06T16:09:32.010Z,10.33
2018-03-06T16:12:00.307Z,10.57
2018-03-06T16:14:28.609Z,10.10
2018-03-06T16:16:56.909Z,10.67
2018-03-06T16:19:25.206Z,10.30
2018-03-06T16:21:53.271Z,10.00
2018-03-06T16:24:21.558Z,10.30
2018-03-06T16:26:49.865Z,11.23
2018-03-06T16:29:18.169Z,10.73
2018-03-06T16:31:46.501Z,11.50
2018-03-06T16:34:14.790Z,12.60
2018-03-06T16:36:43.105Z,10.73
2018-03-06T16:39:11.426Z,11.47
2018-03-06T16:41:39.733Z,11.73
2018-03-06T16:44:08.042Z,10.83
2018-03-06T16:46:36.364Z,10.73
2018-03-06T16:49:04.666Z,10.70
2018-03-06T16:51:32.970Z,10.80
2018-03-06T16:54:01.322Z,10.43
2018-03-06T16:56:29.621Z,10.83
2018-03-06T16:58:57.727Z,10.13
2018-03-06T17:01:26.075Z,11.03
2018-03-06T17:03:54.633Z,10.50
2018-03-06T17:06:23.060Z,9.60
2018-03-06T17:08:51.369Z,10.07
2018-03-06T17:11:20.599Z,9.93
2018-03-06T17:13:48.961Z,10.30
2018-03-06T17:16:17.268Z,10.53
2018-03-06T17:18:45.558Z,9.80
2018-03-06T17:21:13.861Z,10.00
2018-03-06T17:23:42.171Z,9.87
2018-03-06T17:26:10.474Z,9.30
2018-03-06T17:28:38.769Z,9.50
2018-03-06T17:31:07.075Z,9.63
2018-03-06T17:33:35.366Z,9.17
2018-03-06T17:36:03.686Z,9.70
2018-03-06T17:38:32.177Z,9.13
2018-03-06T17:41:00.494Z,9.33
2018-03-06T17:43:28.799Z,9.60
2018-03-06T17:45:57.086Z,9.80
2018-03-06T17:48:25.388Z,9.60
2018-03-06T17:50:53.701Z,8.67
2018-03-06T17:53:22.056Z,9.00
2018-03-06T17:55:50.355Z,9.07
2018-03-06T17:58:18.672Z,8.70
2018-03-06T18:00:47.035Z,9.07
2018-03-06T18:03:15.328Z,8.50
2018-03-06T18:05:43.614Z,8.03
2018-03-06T18:08:11.911Z,8.93
2018-03-06T18:10:40.201Z,8.20
2018-03-06T18:13:08.500Z,8.23
2018-03-06T18:15:36.794Z,8.70
2018-03-06T18:18:05.097Z,9.00
2018-03-06T18:20:33.379Z,8.03
2018-03-06T18:23:01.576Z,8.27
2018-03-06T18:25:30.530Z,8.47
2018-03-06T18:27:58.825Z,8.13
2018-03-06T18:30:27.108Z,8.60
2018-03-06T18:32:55.425Z,8.83
2018-03-06T18:35:23.730Z,8.97
2018-03-06T18:37:52.039Z,8.47
2018-03-06T18:40:20.332Z,8.33
2018-03-06T18:42:48.611Z,8.87
2018-03-06T18:45:17.563Z,8.80
2018-03-06T18:47:45.844Z,9.10
2018-03-06T18:50:25.404Z,8.70
2018-03-06T18:52:53.700Z,8.53
2018-03-06T18:55:22.052Z,8.87
2018-03-06T18:57:50.344Z,8.63
2018-03-06T19:03:49.440Z,15.20
2018-03-06T19:06:23.936Z,18.13
2018-03-06T19:08:51.589Z,28.43
2018-03-06T19:11:19.895Z,33.37
2018-03-06T19:13:48.209Z,35.60
2018-03-06T19:16:16.809Z,36.17
2018-03-06T19:18:45.717Z,35.87
2018-03-06T19:21:14.398Z,34.70
2018-03-06T19:23:43.270Z,28.30
2018-03-06T19:26:12.732Z,31.83
2018-03-06T19:28:42.641Z,28.63
2018-03-06T19:31:12.590Z,30.17
2018-03-06T19:33:40.928Z,28.43
2018-03-06T19:36:10.452Z,28.70
2018-03-06T19:38:40.743Z,28.30
2018-03-06T19:41:09.178Z,27.27
2018-03-06T19:43:37.784Z,26.30
2018-03-06T19:46:07.020Z,24.90
2018-03-06T19:48:36.311Z,24.33
2018-03-06T19:51:05.934Z,23.57
2018-03-06T19:53:34.387Z,23.53
2018-03-06T19:56:03.930Z,22.63
2018-03-06T19:58:33.409Z,21.73
2018-03-06T20:01:02.832Z,21.10
2018-03-06T20:03:31.283Z,20.17
2018-03-06T20:06:00.839Z,20.03
2018-03-06T20:08:30.133Z,19.57
2018-03-06T20:10:58.654Z,19.13
2018-03-06T20:13:26.986Z,18.20
2018-03-06T20:15:56.283Z,18.73
2018-03-06T20:18:25.625Z,18.37
2018-03-06T20:20:54.017Z,18.57
2018-03-06T20:23:22.362Z,17.77
2018-03-06T20:25:56.101Z,17.30
2018-03-06T20:28:24.510Z,16.57
2018-03-06T20:30:58.438Z,15.73
2018-03-06T20:33:26.754Z,15.90
2018-03-06T20:35:55.041Z,15.27
2018-03-06T20:38:28.841Z,15.30
2018-03-06T20:40:57.195Z,14.90
2018-03-06T20:43:25.495Z,14.73
2018-03-06T20:45:59.566Z,14.70
2018-03-06T20:48:27.897Z,13.40
2018-03-06T20:50:56.207Z,13.53
2018-03-06T20:53:30.034Z,13.43
2018-03-06T20:55:58.676Z,13.47
2018-03-06T20:58:27.094Z,13.67
2018-03-06T21:00:56.000Z,12.90
2018-03-06T21:03:24.352Z,11.90
2018-03-06T21:05:52.642Z,12.53
2018-03-06T21:08:20.935Z,12.03
2018-03-06T21:10:49.776Z,11.67
2018-03-06T21:13:18.092Z,12.10
2018-03-06T21:15:46.385Z,11.87
2018-03-06T21:18:14.682Z,11.37
2018-03-06T21:20:42.996Z,11.67
2018-03-06T21:23:11.293Z,11.17
2018-03-06T21:25:39.625Z,11.20
2018-03-06T21:28:07.914Z,11.00
2018-03-06T21:30:36.277Z,11.30
2018-03-06T21:33:04.602Z,10.73
2018-03-06T21:35:32.917Z,9.87
2018-03-06T21:38:01.225Z,10.60
2018-03-06T21:40:29.527Z,9.77
2018-03-06T21:42:57.922Z,9.87
2018-03-06T21:45:26.358Z,9.60
2018-03-06T21:47:54.687Z,9.63
2018-03-06T21:50:23.006Z,9.47
2018-03-06T21:52:51.326Z,9.33
2018-03-06T21:55:19.637Z,9.13
2018-03-06T21:57:47.942Z,9.73
2018-03-06T22:00:16.238Z,8.90
2018-03-06T22:02:44.562Z,8.63
2018-03-06T22:05:13.156Z,8.97
2018-03-06T22:07:41.491Z,7.70
2018-03-06T22:10:09.804Z,8.83
2018-03-06T22:12:38.108Z,8.33
2018-03-06T22:15:06.238Z,8.13
2018-03-06T22:17:34.535Z,8.47
2018-03-06T22:20:02.822Z,7.97
2018-03-06T22:22:31.124Z,8.07
2018-03-06T22:24:59.516Z,7.37
2018-03-06T22:27:27.818Z,7.40
2018-03-06T22:29:56.137Z,7.33
2018-03-06T22:32:24.416Z,7.43
2018-03-06T22:34:52.743Z,7.67
2018-03-06T22:37:21.074Z,7.60
2018-03-06T22:39:49.371Z,7.13
2018-03-06T22:42:17.685Z,6.40
2018-03-06T22:44:45.993Z,7.40
2018-03-06T22:47:14.323Z,6.77
2018-03-06T22:49:43.421Z,7.00
2018-03-06T22:52:11.731Z,6.30
2018-03-06T22:54:40.028Z,6.13
2018-03-06T22:57:08.334Z,6.80
2018-03-06T22:59:36.704Z,6.50
2018-03-06T23:02:04.996Z,5.93
2018-03-06T23:04:33.274Z,6.40
2018-03-06T23:07:01.637Z,6.43
2018-03-06T23:09:29.925Z,6.07
2018-03-06T23:11:58.275Z,6.13
2018-03-06T23:14:26.584Z,5.77
2018-03-06T23:16:58.757Z,5.93
2018-03-06T23:19:27.121Z,5.70
2018-03-06T23:21:55.408Z,6.17
2018-03-06T23:24:24.715Z,6.30
2018-03-06T23:26:53.016Z,5.90
2018-03-06T23:29:21.346Z,6.70
2018-03-06T23:31:49.658Z,5.97
2018-03-06T23:34:17.940Z,6.30
2018-03-06T23:36:46.272Z,6.70
2018-03-06T23:39:14.580Z,6.57
2018-03-06T23:41:42.886Z,6.20
2018-03-06T23:44:11.171Z,5.90
2018-03-06T23:46:39.454Z,5.67
2018-03-06T23:49:07.946Z,5.80
2018-03-06T23:51:36.220Z,6.23
2018-03-06T23:54:04.698Z,6.03
2018-03-06T23:56:32.969Z,5.50
2018-03-06T23:59:01.253Z,5.40
